Taylor, Utah
Current Conditions -  °F | °C
As of 4:53 AM on Wednesday 28 Jan 2015 (Local Time) from KOGD Reporting Station
Overcast Overcast  
Wind Chill: 36°   Ceiling: 4500
Heat Index: 41°   Visibility: 8mi
Dew Point: 39°   Wind: 7mph
Humidity: 93%   Direction: 120°ESE
Pressure: 30.21"   Gusts: NA
Location:  41.2221°N, 112.033°W
Report Text: KOGD 281153Z 12006KT 8SM SCT034 OVC045 05/04 A3021 RMK AO2 RAE49 SLP217 P0002 60003 70013 T00500039 10067 20044 51009
Loading
Personal Weather Stations






























Interactive Weather Map New forecast layout! Learn more

10-Day Weather Forecast

Advertisements
Track Severe Weather on mobile